createdAt,value
2023-03-29T00:00:14.690Z,23.17
2023-03-29T00:04:14.938Z,23.14
2023-03-29T00:08:15.088Z,23.37
2023-03-29T00:12:15.367Z,23.46
2023-03-29T00:16:15.521Z,23.54
2023-03-29T00:20:15.640Z,23.44
2023-03-29T00:24:15.880Z,23.11
2023-03-29T00:28:16.105Z,23.26
2023-03-29T00:32:16.346Z,23.57
2023-03-29T00:36:16.545Z,23.33
2023-03-29T00:40:17.369Z,23.77
2023-03-29T00:44:16.964Z,23.36
2023-03-29T00:48:17.152Z,23.54
2023-03-29T00:52:17.504Z,23.31
2023-03-29T00:56:17.601Z,23.46
2023-03-29T01:00:17.727Z,23.62
2023-03-29T01:04:17.555Z,23.35
2023-03-29T01:08:17.501Z,23.33
2023-03-29T01:12:17.485Z,23.25
2023-03-29T01:16:17.603Z,23.34
2023-03-29T01:20:17.425Z,23.88
2023-03-29T01:24:17.362Z,23.81
2023-03-29T01:28:17.341Z,23.66
2023-03-29T01:32:17.342Z,23.48
2023-03-29T01:36:17.288Z,23.55
2023-03-29T01:40:17.359Z,23.71
2023-03-29T01:44:17.564Z,23.55
2023-03-29T01:48:17.746Z,23.72
2023-03-29T01:52:17.947Z,23.65
2023-03-29T01:56:17.912Z,23.80
2023-03-29T02:00:17.826Z,23.69
2023-03-29T02:04:17.800Z,23.70
2023-03-29T02:08:17.776Z,23.72
2023-03-29T02:12:17.769Z,23.89
2023-03-29T02:16:17.744Z,23.99
2023-03-29T02:20:17.760Z,24.16
2023-03-29T02:24:17.624Z,23.90
2023-03-29T02:28:17.898Z,24.11
2023-03-29T02:32:17.621Z,24.09
2023-03-29T02:36:17.656Z,24.16
2023-03-29T02:40:17.788Z,24.20
2023-03-29T02:44:17.954Z,24.50
2023-03-29T02:48:18.171Z,24.41
2023-03-29T02:52:18.384Z,24.41
2023-03-29T02:56:18.656Z,24.40
2023-03-29T03:00:18.845Z,24.38
2023-03-29T03:04:18.832Z,24.78
2023-03-29T03:08:18.790Z,24.73
2023-03-29T03:12:18.740Z,24.64
2023-03-29T03:16:18.796Z,24.93
2023-03-29T03:20:18.761Z,24.89
2023-03-29T03:24:18.789Z,24.78
2023-03-29T03:28:18.684Z,24.69
2023-03-29T03:32:18.630Z,24.66
2023-03-29T03:36:18.593Z,24.65
2023-03-29T03:40:18.603Z,25.02
2023-03-29T03:44:18.580Z,24.90
2023-03-29T03:48:18.584Z,25.15
2023-03-29T03:52:18.592Z,24.99
2023-03-29T03:56:19.434Z,25.10
2023-03-29T04:00:18.524Z,25.16
2023-03-29T04:04:18.537Z,25.22
2023-03-29T04:08:18.985Z,25.14
2023-03-29T04:12:18.472Z,25.03
2023-03-29T04:16:18.588Z,25.10
2023-03-29T04:20:18.423Z,25.44
2023-03-29T04:24:18.418Z,25.15
2023-03-29T04:28:18.419Z,25.30
2023-03-29T04:32:18.395Z,25.27
2023-03-29T04:36:18.414Z,25.14
2023-03-29T04:40:18.360Z,25.20
2023-03-29T04:44:18.344Z,25.11
2023-03-29T04:48:18.301Z,25.37
2023-03-29T04:52:18.265Z,27.26
2023-03-29T04:56:18.346Z,30.71
2023-03-29T05:00:18.176Z,33.23
2023-03-29T05:04:18.233Z,34.01
2023-03-29T05:08:18.079Z,35.33
2023-03-29T05:12:18.019Z,36.59
2023-03-29T05:16:18.022Z,36.81
2023-03-29T05:20:17.987Z,37.57
2023-03-29T05:24:17.914Z,38.41
2023-03-29T05:28:17.821Z,39.12
2023-03-29T05:32:17.755Z,38.69
2023-03-29T05:36:17.886Z,35.98
2023-03-29T05:40:18.010Z,38.89
2023-03-29T05:44:18.515Z,38.97
2023-03-29T05:48:17.848Z,39.32
2023-03-29T05:52:19.485Z,39.38
2023-03-29T05:56:18.483Z,40.95
2023-03-29T06:00:18.173Z,40.29
2023-03-29T06:04:18.586Z,41.25
2023-03-29T06:08:18.502Z,42.33
2023-03-29T06:12:18.222Z,42.43
2023-03-29T06:16:18.266Z,42.83
2023-03-29T06:20:18.221Z,43.09
2023-03-29T06:24:18.187Z,43.08
2023-03-29T06:28:18.213Z,43.78
2023-03-29T06:32:18.296Z,44.28
2023-03-29T06:36:18.289Z,44.37
2023-03-29T06:40:18.061Z,44.06
2023-03-29T06:44:18.157Z,45.21
2023-03-29T06:48:18.530Z,45.37
2023-03-29T06:52:18.542Z,45.43
2023-03-29T06:56:18.173Z,45.16
2023-03-29T07:00:18.135Z,45.81
2023-03-29T07:04:18.663Z,45.83
2023-03-29T07:08:18.127Z,46.10
2023-03-29T07:12:18.519Z,46.90
2023-03-29T07:16:18.220Z,46.75
2023-03-29T07:20:18.496Z,46.60
2023-03-29T07:24:18.306Z,47.35
2023-03-29T07:28:19.036Z,46.89
2023-03-29T07:32:18.690Z,47.09
2023-03-29T07:36:18.761Z,47.13
2023-03-29T07:40:19.070Z,46.38
2023-03-29T07:44:19.516Z,45.86
2023-03-29T07:48:18.829Z,44.51
2023-03-29T07:52:18.769Z,43.92
2023-03-29T07:56:18.680Z,43.74
2023-03-29T08:00:18.642Z,44.74
2023-03-29T08:04:18.742Z,44.77
2023-03-29T08:08:18.497Z,44.97
2023-03-29T08:12:18.350Z,45.85
2023-03-29T08:16:18.331Z,46.38
2023-03-29T08:20:18.202Z,45.82
2023-03-29T08:24:20.821Z,46.28
2023-03-29T08:28:18.072Z,46.81
2023-03-29T08:32:17.980Z,46.40
2023-03-29T08:36:19.558Z,46.66
2023-03-29T08:40:17.779Z,48.02
2023-03-29T08:44:17.672Z,46.59
2023-03-29T08:48:18.081Z,46.83
2023-03-29T08:52:18.587Z,46.56
2023-03-29T08:56:17.689Z,45.43
2023-03-29T09:00:17.870Z,46.07
2023-03-29T09:04:17.725Z,45.84
2023-03-29T09:08:18.051Z,44.45
2023-03-29T09:12:17.570Z,45.73
2023-03-29T09:16:18.118Z,45.50
2023-03-29T09:20:17.427Z,45.88
2023-03-29T09:24:17.329Z,44.67
2023-03-29T09:28:17.597Z,45.95
2023-03-29T09:32:17.137Z,43.68
2023-03-29T09:36:17.162Z,45.88
2023-03-29T09:40:17.109Z,45.73
2023-03-29T09:44:29.821Z,47.14
2023-03-29T09:48:18.061Z,46.99
2023-03-29T09:52:17.066Z,46.04
2023-03-29T09:56:16.884Z,44.40
2023-03-29T10:00:17.102Z,45.05
2023-03-29T10:04:17.084Z,45.49
2023-03-29T10:08:18.929Z,45.28
2023-03-29T10:12:17.116Z,45.81
2023-03-29T10:16:16.913Z,45.72
2023-03-29T10:20:16.695Z,46.28
2023-03-29T10:24:17.158Z,46.60
2023-03-29T10:28:16.583Z,46.59
2023-03-29T10:32:16.626Z,46.52
2023-03-29T10:36:16.586Z,46.90
2023-03-29T10:40:16.605Z,46.57
2023-03-29T10:44:16.264Z,45.14
2023-03-29T10:48:16.208Z,45.77
2023-03-29T10:52:16.106Z,46.09
2023-03-29T10:56:16.087Z,46.14
2023-03-29T11:00:15.951Z,45.52
2023-03-29T11:04:15.847Z,45.76
2023-03-29T11:08:15.943Z,46.01
2023-03-29T11:12:16.620Z,46.19
2023-03-29T11:16:16.162Z,46.25
2023-03-29T11:20:16.040Z,46.79
2023-03-29T11:24:16.065Z,47.60
2023-03-29T11:28:16.226Z,47.51
2023-03-29T11:32:16.113Z,43.26
2023-03-29T11:36:16.666Z,43.53
2023-03-29T11:40:16.229Z,42.55
2023-03-29T11:44:16.458Z,46.04
2023-03-29T11:48:16.441Z,45.32
2023-03-29T11:52:16.563Z,45.50
2023-03-29T11:56:24.193Z,44.42
2023-03-29T12:00:16.616Z,46.87
2023-03-29T12:04:16.682Z,47.47
2023-03-29T12:08:16.494Z,47.85
2023-03-29T12:12:16.407Z,48.41
2023-03-29T12:16:16.352Z,48.54
2023-03-29T12:20:16.164Z,46.24
2023-03-29T12:24:16.104Z,47.07
2023-03-29T12:28:17.630Z,46.21
2023-03-29T12:32:16.001Z,46.55
2023-03-29T12:36:16.001Z,46.32
2023-03-29T12:40:15.899Z,46.88
2023-03-29T12:44:15.781Z,47.67
2023-03-29T12:48:15.720Z,48.51
2023-03-29T12:52:15.721Z,47.30
2023-03-29T12:56:15.671Z,47.91
2023-03-29T13:00:15.653Z,48.35
2023-03-29T13:04:15.589Z,48.26
2023-03-29T13:08:15.560Z,47.37
2023-03-29T13:12:25.677Z,47.67
2023-03-29T13:16:15.555Z,47.53
2023-03-29T13:20:15.378Z,46.57
2023-03-29T13:24:15.281Z,46.72
2023-03-29T13:28:15.202Z,48.32
2023-03-29T13:32:15.105Z,47.83
2023-03-29T13:36:15.047Z,45.09
2023-03-29T13:40:14.909Z,47.81
2023-03-29T13:44:14.827Z,48.05
2023-03-29T13:48:14.759Z,47.85
2023-03-29T13:52:14.642Z,46.63
2023-03-29T13:56:14.676Z,47.39
2023-03-29T14:00:14.699Z,47.74
2023-03-29T14:04:14.805Z,47.84
2023-03-29T14:08:14.880Z,47.60
2023-03-29T14:12:14.932Z,48.00
2023-03-29T14:16:15.044Z,47.93
2023-03-29T14:20:15.090Z,47.54
2023-03-29T14:24:15.268Z,46.38
2023-03-29T14:28:15.314Z,45.95
2023-03-29T14:32:15.467Z,47.54
2023-03-29T14:36:15.522Z,48.39
2023-03-29T14:40:15.611Z,48.97
2023-03-29T14:44:15.676Z,49.18
2023-03-29T14:48:15.867Z,48.70
2023-03-29T14:52:15.895Z,49.27
2023-03-29T14:56:16.026Z,50.25
2023-03-29T15:00:16.172Z,49.98
2023-03-29T15:04:16.228Z,49.88
2023-03-29T15:08:16.309Z,49.99
2023-03-29T15:12:16.377Z,50.49
2023-03-29T15:16:16.528Z,50.31
2023-03-29T15:20:16.733Z,50.42
2023-03-29T15:24:16.675Z,50.99
2023-03-29T15:28:16.754Z,51.62
2023-03-29T15:32:16.841Z,50.49
2023-03-29T15:36:17.058Z,50.64
2023-03-29T15:40:17.188Z,51.30
2023-03-29T15:44:17.203Z,50.97
2023-03-29T15:48:17.331Z,51.13
2023-03-29T15:52:17.498Z,51.50
2023-03-29T15:56:17.608Z,51.94
2023-03-29T16:00:17.669Z,51.79
2023-03-29T16:04:17.785Z,51.15
2023-03-29T16:08:17.892Z,51.67
2023-03-29T16:12:17.935Z,51.68
2023-03-29T16:16:18.075Z,52.19
2023-03-29T16:20:18.149Z,51.86
2023-03-29T16:24:18.177Z,51.81
2023-03-29T16:28:18.278Z,52.10
2023-03-29T16:32:18.369Z,52.52
2023-03-29T16:36:18.400Z,52.44
2023-03-29T16:40:18.385Z,51.47
2023-03-29T16:44:20.753Z,51.88
2023-03-29T16:48:18.412Z,52.64
2023-03-29T16:52:18.327Z,52.51
2023-03-29T16:56:19.248Z,53.07
2023-03-29T17:00:18.178Z,51.92
2023-03-29T17:04:18.136Z,49.92
2023-03-29T17:08:18.013Z,48.49
2023-03-29T17:12:18.142Z,48.07
2023-03-29T17:16:18.227Z,47.16
2023-03-29T17:20:18.164Z,46.37
2023-03-29T17:24:18.138Z,46.40
2023-03-29T17:28:18.108Z,45.61
2023-03-29T17:32:18.039Z,45.12
2023-03-29T17:36:18.028Z,44.26
2023-03-29T17:40:17.951Z,44.07
2023-03-29T17:44:17.916Z,43.13
2023-03-29T17:48:17.929Z,43.06
2023-03-29T17:52:17.924Z,42.84
2023-03-29T17:56:17.957Z,42.77
2023-03-29T18:00:17.941Z,42.69
2023-03-29T18:04:17.957Z,42.24
2023-03-29T18:08:17.921Z,42.12
2023-03-29T18:12:17.950Z,41.69
2023-03-29T18:16:17.990Z,41.44
2023-03-29T18:20:18.033Z,40.81
2023-03-29T18:24:18.057Z,40.73
2023-03-29T18:28:18.119Z,40.85
2023-03-29T18:32:18.202Z,40.63
2023-03-29T18:36:18.237Z,40.25
2023-03-29T18:40:18.273Z,40.16
2023-03-29T18:44:18.298Z,39.77
2023-03-29T18:48:18.355Z,39.76
2023-03-29T18:52:18.415Z,39.43
2023-03-29T18:56:18.477Z,39.29
2023-03-29T19:00:18.491Z,39.47
2023-03-29T19:04:18.577Z,38.75
2023-03-29T19:08:18.606Z,38.56
2023-03-29T19:12:18.678Z,38.16
2023-03-29T19:16:18.866Z,38.23
2023-03-29T19:20:18.882Z,38.19
2023-03-29T19:24:18.918Z,38.14
2023-03-29T19:28:19.011Z,38.57
2023-03-29T19:32:19.073Z,38.46
2023-03-29T19:36:19.162Z,38.26
2023-03-29T19:40:19.324Z,38.40
2023-03-29T19:44:19.338Z,38.09
2023-03-29T19:48:23.051Z,38.02
2023-03-29T19:52:19.411Z,37.92
2023-03-29T19:56:19.360Z,38.02
2023-03-29T20:00:19.353Z,38.07
2023-03-29T20:04:19.306Z,37.56
2023-03-29T20:08:19.253Z,37.64
2023-03-29T20:12:19.217Z,37.43
2023-03-29T20:16:19.276Z,37.30
2023-03-29T20:20:19.365Z,37.51
2023-03-29T20:24:19.490Z,37.19
2023-03-29T20:28:19.594Z,37.23
2023-03-29T20:32:19.828Z,37.19
2023-03-29T20:36:19.955Z,37.30
2023-03-29T20:40:20.057Z,37.11
2023-03-29T20:44:20.140Z,36.99
2023-03-29T20:48:20.280Z,37.18
2023-03-29T20:52:20.435Z,37.01
2023-03-29T20:56:20.606Z,36.81
2023-03-29T21:00:20.741Z,37.07
2023-03-29T21:04:20.872Z,37.07
2023-03-29T21:08:21.047Z,37.30
2023-03-29T21:12:21.172Z,36.98
2023-03-29T21:16:21.371Z,36.64
2023-03-29T21:20:21.535Z,36.86
2023-03-29T21:24:21.683Z,36.76
2023-03-29T21:28:21.793Z,36.85
2023-03-29T21:32:21.965Z,36.86
2023-03-29T21:36:22.122Z,36.65
2023-03-29T21:40:22.263Z,37.07
2023-03-29T21:44:22.484Z,36.60
2023-03-29T21:48:22.594Z,36.56
2023-03-29T21:52:22.733Z,36.57
2023-03-29T21:56:22.868Z,36.76
2023-03-29T22:00:23.035Z,36.60
2023-03-29T22:04:35.722Z,36.95
2023-03-29T22:08:24.088Z,36.54
2023-03-29T22:12:23.020Z,36.73
2023-03-29T22:16:23.000Z,36.81
2023-03-29T22:20:23.126Z,36.53
2023-03-29T22:24:23.240Z,36.36
2023-03-29T22:28:23.378Z,36.48
2023-03-29T22:32:23.575Z,36.56
2023-03-29T22:36:23.664Z,36.52
2023-03-29T22:40:23.873Z,36.25
2023-03-29T22:44:24.000Z,36.65
2023-03-29T22:48:24.147Z,36.52
2023-03-29T22:52:24.311Z,36.68
2023-03-29T22:56:24.437Z,36.52
2023-03-29T23:00:24.587Z,36.29
2023-03-29T23:04:24.815Z,36.42
2023-03-29T23:08:24.916Z,36.27
2023-03-29T23:12:25.057Z,36.10
2023-03-29T23:16:25.279Z,36.02
2023-03-29T23:20:25.382Z,36.36
2023-03-29T23:24:25.551Z,36.19
2023-03-29T23:28:25.696Z,36.15
2023-03-29T23:32:25.863Z,35.61
2023-03-29T23:36:26.044Z,35.61
2023-03-29T23:40:26.178Z,35.51
2023-03-29T23:44:26.305Z,35.62
2023-03-29T23:48:26.428Z,35.59
2023-03-29T23:52:26.573Z,35.58
2023-03-29T23:56:26.768Z,35.32
